Time;durP1;ratioP1;P1;durP2;ratioP2;P2;SDS_P1;SDS_P2;PMS_P1;PMS_P2;Temp;Humidity;BMP_temperature;BMP_pressure;BME280_temperature;BME280_humidity;BME280_pressure;Samples;Min_cycle;Max_cycle;Signal;HPM_P1;HPM_P2
2021/06/01 00:00:36;;;;;;;21.68;9.60;;;;;;;5.18;79.55;98392.91;1759196;81;21382;-77
2021/06/01 00:03:03;;;;;;;21.87;10.70;;;;;;;5.13;80.58;98394.16;1758994;80;20905;-77
2021/06/01 00:05:30;;;;;;;21.55;10.28;;;;;;;5.16;80.06;98395.55;1759571;81;20884;-77
2021/06/01 00:07:56;;;;;;;12.80;8.30;;;;;;;5.21;80.25;98390.27;1759410;80;20949;-77
2021/06/01 00:10:21;;;;;;;16.93;8.78;;;;;;;5.17;81.17;98383.22;1759415;81;21231;-77
2021/06/01 00:12:48;;;;;;;13.35;7.40;;;;;;;5.12;82.30;98388.47;1759419;80;21065;-77
2021/06/01 00:15:14;;;;;;;12.18;7.35;;;;;;;5.15;80.54;98381.83;1709620;81;20973;-77
2021/06/01 00:17:40;;;;;;;13.93;6.78;;;;;;;5.11;80.30;98378.78;1759393;80;21386;-77
2021/06/01 00:20:10;;;;;;;16.32;8.48;;;;;;;5.02;80.66;98386.38;1759439;81;20878;-77
2021/06/01 00:22:36;;;;;;;16.97;9.70;;;;;;;4.97;81.75;98387.63;1759373;80;22778;-77
2021/06/01 00:25:04;;;;;;;17.77;9.75;;;;;;;4.98;80.56;98388.45;1759236;81;21497;-77
2021/06/01 00:27:30;;;;;;;19.40;10.32;;;;;;;4.88;80.79;98388.22;1755702;80;21144;-77
2021/06/01 00:29:56;;;;;;;13.70;8.28;;;;;;;4.90;80.58;98384.77;1750148;81;20965;-77
2021/06/01 00:32:22;;;;;;;21.90;8.78;;;;;;;4.81;79.73;98388.33;1750353;80;20981;-77
2021/06/01 00:34:48;;;;;;;18.15;9.73;;;;;;;4.72;79.37;98395.91;1750163;82;21200;-77
2021/06/01 00:37:14;;;;;;;12.68;7.42;;;;;;;4.64;79.87;98392.23;1750254;80;21069;-77
2021/06/01 00:39:40;;;;;;;13.72;8.33;;;;;;;4.58;80.21;98389.65;1750311;82;21073;-77
2021/06/01 00:42:07;;;;;;;16.00;8.38;;;;;;;4.56;81.28;98395.26;1750197;81;20891;-77
2021/06/01 00:44:32;;;;;;;13.93;6.58;;;;;;;4.57;81.20;98396.89;1721308;82;21065;-77
2021/06/01 00:46:59;;;;;;;14.98;7.80;;;;;;;4.58;80.46;98391.80;1696933;82;21674;-77
2021/06/01 00:49:25;;;;;;;14.80;7.10;;;;;;;4.59;80.13;98397.99;1750221;80;20874;-77
2021/06/01 00:51:51;;;;;;;15.38;8.25;;;;;;;4.48;81.57;98388.36;1750299;82;21524;-77
2021/06/01 00:54:17;;;;;;;14.20;7.78;;;;;;;4.44;81.21;98392.56;1750190;80;20942;-77
2021/06/01 00:56:43;;;;;;;14.20;8.35;;;;;;;4.48;82.35;98400.96;1750224;82;20870;-77
2021/06/01 00:59:09;;;;;;;15.93;7.85;;;;;;;4.50;82.04;98394.83;1750277;80;20963;-77
2021/06/01 01:01:35;;;;;;;15.25;7.95;;;;;;;4.48;82.30;98399.09;1750107;81;20885;-77
2021/06/01 01:04:01;;;;;;;17.48;7.17;;;;;;;4.39;82.82;98395.11;1720885;82;20953;-77
2021/06/01 01:06:46;;;;;;;12.65;7.42;;;;;;;4.36;82.78;98396.08;1750380;81;20966;-77
2021/06/01 01:09:14;;;;;;;19.92;7.75;;;;;;;4.39;81.21;98395.64;1743942;82;21018;-77
2021/06/01 01:12:16;;;;;;;12.33;6.90;;;;;;;4.32;82.70;98399.76;1720784;82;21092;-77
2021/06/01 01:14:53;;;;;;;13.48;7.90;;;;;;;4.34;82.22;98403.55;1745308;82;21081;-76
2021/06/01 01:17:25;;;;;;;14.20;8.23;;;;;;;4.37;82.21;98401.24;1750279;80;20985;-76
2021/06/01 01:20:31;;;;;;;14.53;8.75;;;;;;;4.37;81.51;98399.08;1719505;82;21084;-77
2021/06/01 01:22:57;;;;;;;13.60;7.87;;;;;;;4.36;82.33;98396.92;1750304;80;21377;-77
2021/06/01 01:25:50;;;;;;;12.73;7.40;;;;;;;4.31;82.80;98394.63;1721225;82;21246;-77
2021/06/01 01:28:48;;;;;;;14.18;7.67;;;;;;;4.22;83.13;98395.48;1759664;79;20945;-77
2021/06/01 01:31:21;;;;;;;17.20;7.65;;;;;;;4.14;83.59;98396.62;1766957;81;21005;-78
2021/06/01 01:33:47;;;;;;;18.82;8.53;;;;;;;4.07;83.94;98397.24;1758030;79;21048;-78
2021/06/01 01:36:13;;;;;;;12.45;8.03;;;;;;;4.06;82.45;98393.45;1766932;81;20999;-78
2021/06/01 01:38:40;;;;;;;16.27;7.45;;;;;;;4.06;82.45;98393.45;1766993;79;21850;-78
2021/06/01 01:41:10;;;;;;;14.45;7.45;;;;;;;4.06;81.62;98393.45;1740787;81;20953;-78
2021/06/01 01:43:36;;;;;;;11.05;7.12;;;;;;;4.04;82.30;98390.19;1766842;79;20858;-78
2021/06/01 01:46:08;;;;;;;13.58;7.25;;;;;;;4.00;82.31;98388.99;1767186;81;20866;-78
2021/06/01 01:51:16;;;;;;;13.13;7.83;;;;;;;3.99;82.56;98390.04;1767015;81;21047;-77
2021/06/01 01:53:55;;;;;;;13.18;7.67;;;;;;;3.93;83.77;98391.76;1766693;79;21064;-77
2021/06/01 01:56:22;;;;;;;17.20;7.60;;;;;;;3.87;84.34;98383.31;1767021;81;21040;-77
2021/06/01 01:58:51;;;;;;;12.37;7.30;;;;;;;3.87;82.39;98383.31;1766722;79;21017;-77
2021/06/01 02:01:17;;;;;;;13.53;7.90;;;;;;;3.81;83.54;98381.00;1766925;81;21037;-77
2021/06/01 02:03:44;;;;;;;15.93;7.80;;;;;;;3.79;84.15;98380.95;1740697;81;21081;-77
2021/06/01 02:06:10;;;;;;;14.23;8.03;;;;;;;3.71;84.17;98386.62;1766877;81;20978;-77
2021/06/01 02:08:39;;;;;;;12.15;6.83;;;;;;;3.65;83.54;98383.79;1766808;79;21357;-77
2021/06/01 02:11:05;;;;;;;16.77;7.40;;;;;;;3.61;82.89;98384.48;1766802;81;21048;-77
2021/06/01 02:13:34;;;;;;;11.10;6.50;;;;;;;3.56;84.09;98386.48;1766813;79;21496;-77
2021/06/01 02:16:01;;;;;;;16.35;8.00;;;;;;;3.60;83.12;98385.00;1765770;81;21763;-77
2021/06/01 02:18:27;;;;;;;14.90;6.85;;;;;;;3.60;83.21;98386.34;1766727;79;20968;-78
2021/06/01 02:20:55;;;;;;;12.25;6.55;;;;;;;3.61;83.18;98382.62;1767026;81;20969;-78
2021/06/01 02:23:48;;;;;;;12.07;7.20;;;;;;;3.55;83.33;98390.21;1766762;79;20925;-78
2021/06/01 02:26:38;;;;;;;20.00;7.45;;;;;;;3.56;82.52;98386.48;1767223;81;20910;-77
2021/06/01 02:29:12;;;;;;;14.38;6.78;;;;;;;3.57;83.01;98390.80;1753570;79;21009;-76
2021/06/01 02:31:41;;;;;;;13.20;6.42;;;;;;;3.55;81.58;98390.21;1748699;82;21350;-77
2021/06/01 02:34:07;;;;;;;;;;;;;;;3.48;82.45;98387.31;1752669;80;21485;-77
2021/06/01 02:36:35;;;;;;;12.73;7.00;;;;;;;3.45;83.72;98387.77;1720587;82;20240;-77
2021/06/01 02:39:03;;;;;;;17.00;7.25;;;;;;;3.45;84.04;98393.95;1750423;80;21038;-77
2021/06/01 02:41:30;;;;;;;13.62;7.80;;;;;;;3.44;83.87;98392.31;1750159;82;21640;-77
2021/06/01 02:43:56;;;;;;;16.82;8.43;;;;;;;3.40;83.95;98391.92;1750346;80;20967;-77
2021/06/01 02:46:22;;;;;;;16.35;8.25;;;;;;;3.38;83.03;98391.34;1750321;82;20926;-77
2021/06/01 02:48:48;;;;;;;15.05;8.73;;;;;;;3.40;82.10;98393.27;1750162;80;21080;-77
2021/06/01 02:51:18;;;;;;;14.75;7.70;;;;;;;3.42;83.22;98397.09;1750183;82;20981;-77
2021/06/01 02:53:52;;;;;;;12.47;7.20;;;;;;;3.46;82.85;98392.91;1720622;82;21021;-76
2021/06/01 02:56:18;;;;;;;13.10;7.62;;;;;;;3.51;83.40;98393.58;1749929;82;20971;-77
2021/06/01 02:58:47;;;;;;;10.08;6.28;;;;;;;3.52;83.45;98383.97;1750582;80;20898;-77
2021/06/01 03:01:14;;;;;;;14.60;6.78;;;;;;;3.55;83.12;98387.53;1750474;82;20993;-77
2021/06/01 03:03:47;;;;;;;15.38;6.50;;;;;;;3.59;82.57;98389.22;1750540;80;21060;-77
2021/06/01 03:06:13;;;;;;;11.38;7.55;;;;;;;3.59;82.75;98387.39;1749022;82;21758;-76
2021/06/01 03:08:39;;;;;;;14.10;7.15;;;;;;;3.64;82.55;98396.08;1749999;80;20958;-76
2021/06/01 03:11:05;;;;;;;14.90;7.17;;;;;;;3.65;81.80;98390.48;1750154;81;20862;-76
2021/06/01 03:13:32;;;;;;;10.55;6.83;;;;;;;3.60;83.10;98391.70;1720710;82;21001;-76
2021/06/01 03:15:58;;;;;;;16.05;6.92;;;;;;;3.63;81.97;98387.22;1720621;82;21484;-76
2021/06/01 03:18:24;;;;;;;12.63;6.72;;;;;;;3.61;82.12;98394.67;1750527;80;21692;-76
2021/06/01 03:20:50;;;;;;;11.25;7.53;;;;;;;3.55;82.98;98396.91;1749981;81;20942;-76
2021/06/01 03:23:17;;;;;;;14.50;6.67;;;;;;;3.52;83.60;98400.05;1750518;80;20958;-76
2021/06/01 03:25:43;;;;;;;11.75;7.17;;;;;;;3.61;82.27;98397.36;1750187;81;21433;-76
2021/06/01 03:28:09;;;;;;;12.78;6.92;;;;;;;3.67;82.69;98396.95;1750041;80;20870;-76
2021/06/01 03:30:35;;;;;;;13.85;7.05;;;;;;;3.76;82.29;98398.31;1750035;81;21106;-76
2021/06/01 03:33:01;;;;;;;8.98;6.10;;;;;;;3.86;81.86;98397.77;1750151;80;21560;-76
2021/06/01 03:35:27;;;;;;;9.90;7.35;;;;;;;3.94;83.10;98394.77;1750061;82;20965;-76
2021/06/01 03:37:54;;;;;;;11.63;6.87;;;;;;;4.12;82.09;98394.70;1750164;80;20945;-76
2021/06/01 03:40:20;;;;;;;13.35;7.42;;;;;;;4.08;82.45;98391.35;1721311;82;21485;-76
2021/06/01 03:42:46;;;;;;;12.58;6.55;;;;;;;4.15;81.88;98386.19;1750174;80;21414;-76
2021/06/01 03:45:13;;;;;;;18.25;8.05;;;;;;;4.22;82.28;98382.88;1750120;82;21504;-76
2021/06/01 03:47:40;;;;;;;13.95;7.97;;;;;;;4.22;81.74;98381.55;1750286;80;20973;-76
2021/06/01 03:50:08;;;;;;;16.35;8.28;;;;;;;4.36;81.39;98381.32;1697062;82;21049;-76
2021/06/01 03:52:34;;;;;;;16.80;8.38;;;;;;;4.40;81.39;98373.94;1721408;82;20990;-76
2021/06/01 03:55:00;;;;;;;17.75;8.60;;;;;;;4.49;80.97;98382.47;1725309;82;21502;-76
2021/06/01 03:57:26;;;;;;;12.18;7.42;;;;;;;4.50;81.32;98374.17;1750470;80;20942;-76
2021/06/01 03:59:52;;;;;;;10.32;6.75;;;;;;;4.63;81.16;98379.86;1750437;82;21037;-76
2021/06/01 04:02:18;;;;;;;12.35;7.47;;;;;;;4.71;80.67;98380.86;1750473;80;20857;-76
2021/06/01 04:04:44;;;;;;;12.53;6.53;;;;;;;4.84;80.01;98384.35;1750467;82;21477;-76
2021/06/01 04:07:10;;;;;;;11.68;7.87;;;;;;;4.91;79.65;98383.72;1750268;80;21177;-76
2021/06/01 04:09:36;;;;;;;16.32;8.93;;;;;;;4.88;79.89;98390.91;1750267;82;20859;-76
2021/06/01 04:12:04;;;;;;;15.18;7.37;;;;;;;4.99;80.17;98386.05;1750296;82;21511;-76
2021/06/01 04:14:30;;;;;;;16.93;9.75;;;;;;;5.14;80.17;98389.08;1721157;82;21536;-76
2021/06/01 04:16:56;;;;;;;13.75;7.97;;;;;;;5.33;80.98;98386.52;1750305;82;20945;-76
2021/06/01 04:19:22;;;;;;;16.65;8.20;;;;;;;5.52;80.55;98386.36;1750486;80;21045;-76
2021/06/01 04:21:48;;;;;;;10.60;7.33;;;;;;;5.73;80.18;98389.76;1750255;82;20993;-76
2021/06/01 04:24:14;;;;;;;11.03;6.83;;;;;;;5.95;79.11;98389.92;1720697;82;21481;-76
2021/06/01 04:26:40;;;;;;;13.00;7.17;;;;;;;5.91;78.88;98387.44;1750363;81;20905;-76
2021/06/01 04:29:06;;;;;;;17.02;7.30;;;;;;;6.07;78.83;98383.98;1755287;80;20964;-76
2021/06/01 04:31:32;;;;;;;9.60;6.53;;;;;;;6.20;78.97;98388.22;1759393;81;21102;-76
2021/06/01 04:33:58;;;;;;;14.10;7.85;;;;;;;6.43;78.67;98381.90;1759343;80;21418;-76
2021/06/01 04:36:25;;;;;;;17.50;7.90;;;;;;;6.66;78.34;98385.75;1759424;81;20941;-76
2021/06/01 04:38:55;;;;;;;28.00;8.03;;;;;;;6.92;78.04;98383.45;1759352;80;21097;-76
2021/06/01 04:41:21;;;;;;;14.90;7.05;;;;;;;7.20;77.37;98383.87;1759800;81;21025;-76
2021/06/01 04:43:47;;;;;;;11.40;7.12;;;;;;;7.28;76.97;98382.91;1759474;80;21156;-76
2021/06/01 04:46:13;;;;;;;10.45;7.17;;;;;;;7.46;76.27;98375.58;1733611;81;20830;-76
2021/06/01 04:48:39;;;;;;;10.20;7.55;;;;;;;7.49;76.78;98373.19;1759430;80;20930;-76
2021/06/01 04:51:15;;;;;;;16.52;8.50;;;;;;;7.70;76.46;98374.27;1759399;81;21398;-76
2021/06/01 04:53:33;;;;;;;14.15;7.62;;;;;;;7.87;76.45;98370.13;1757548;80;21496;-76
2021/06/01 04:55:59;;;;;;;21.45;8.95;;;;;;;8.08;76.37;98363.05;1759351;81;21772;-76
2021/06/01 04:58:25;;;;;;;12.13;7.55;;;;;;;8.38;75.89;98375.53;1759195;80;20869;-76
2021/06/01 05:00:51;;;;;;;17.30;7.78;;;;;;;8.62;75.26;98375.97;1759483;81;21143;-76
2021/06/01 05:03:17;;;;;;;13.93;8.48;;;;;;;8.62;73.37;98373.27;1759491;80;20925;-76
2021/06/01 05:05:43;;;;;;;12.68;7.12;;;;;;;8.83;73.91;98374.25;1759784;81;20973;-76
2021/06/01 05:08:09;;;;;;;10.13;6.05;;;;;;;9.08;73.04;98375.50;1759383;80;21193;-76
2021/06/01 05:10:35;;;;;;;11.60;7.17;;;;;;;9.21;72.58;98367.72;1759704;81;20909;-76
2021/06/01 05:13:01;;;;;;;8.90;6.20;;;;;;;9.40;72.69;98375.38;1759262;80;20957;-76
2021/06/01 05:15:27;;;;;;;10.35;6.78;;;;;;;9.48;72.13;98373.53;1733752;81;21039;-76
2021/06/01 05:17:53;;;;;;;15.95;7.62;;;;;;;9.54;71.58;98379.24;1759297;80;21032;-76
2021/06/01 05:20:20;;;;;;;15.20;9.00;;;;;;;9.70;71.87;98375.53;1759372;81;21627;-76
2021/06/01 05:22:46;;;;;;;14.25;6.97;;;;;;;9.83;70.87;98375.58;1759233;80;20925;-76
2021/06/01 05:25:12;;;;;;;14.35;9.45;;;;;;;9.76;71.16;98377.18;1759396;81;21068;-76
2021/06/01 05:27:38;;;;;;;8.85;5.92;;;;;;;9.88;71.40;98377.75;1759340;80;20983;-76
2021/06/01 05:30:07;;;;;;;7.08;5.20;;;;;;;10.04;71.31;98374.55;1759364;81;20948;-76
2021/06/01 05:35:03;;;;;;;7.90;5.40;;;;;;;10.04;71.09;98373.73;1759309;81;20929;-76
2021/06/01 05:37:35;;;;;;;9.63;5.95;;;;;;;10.07;70.79;98376.70;1759215;80;21044;-76
2021/06/01 05:40:03;;;;;;;12.80;7.65;;;;;;;10.09;70.29;98361.57;1759647;81;21092;-76
2021/06/01 05:42:29;;;;;;;16.25;11.18;;;;;;;10.30;70.01;98376.78;1759259;80;21159;-76
2021/06/01 05:44:55;;;;;;;28.15;9.38;;;;;;;10.48;69.36;98368.67;1759241;81;21647;-76
2021/06/01 05:47:21;;;;;;;16.25;8.58;;;;;;;10.50;69.25;98372.46;1759150;80;20937;-76
2021/06/01 05:49:47;;;;;;;15.72;6.80;;;;;;;10.60;69.28;98367.88;1759199;81;21121;-76
2021/06/01 05:52:13;;;;;;;13.72;7.45;;;;;;;10.71;68.76;98372.75;1759342;80;20917;-76
2021/06/01 05:54:39;;;;;;;14.03;7.55;;;;;;;10.87;68.26;98368.13;1759331;81;21539;-76
2021/06/01 05:57:06;;;;;;;10.08;6.83;;;;;;;10.93;68.04;98372.44;1759396;81;21233;-76
2021/06/01 05:59:33;;;;;;;12.15;6.03;;;;;;;11.00;67.56;98371.08;1759616;80;20918;-76
2021/06/01 06:01:59;;;;;;;12.23;7.30;;;;;;;11.15;67.64;98378.38;1759296;81;20925;-76
2021/06/01 06:04:25;;;;;;;12.37;6.87;;;;;;;11.30;66.58;98378.90;1759192;80;20917;-76
2021/06/01 06:06:51;;;;;;;15.38;6.90;;;;;;;11.43;66.89;98373.42;1759394;81;21084;-76
2021/06/01 06:09:17;;;;;;;16.42;7.67;;;;;;;11.64;66.92;98377.70;1759247;80;21035;-76
2021/06/01 06:11:43;;;;;;;18.25;7.40;;;;;;;11.89;66.68;98375.45;1759170;81;21041;-76
2021/06/01 06:14:09;;;;;;;11.53;6.75;;;;;;;12.16;65.72;98378.28;1759434;80;20858;-76
2021/06/01 06:16:37;;;;;;;8.93;6.15;;;;;;;12.38;65.04;98363.72;1759256;81;20916;-76
2021/06/01 06:19:03;;;;;;;12.45;6.50;;;;;;;12.60;64.98;98368.18;1758707;80;21432;-76
2021/06/01 06:21:29;;;;;;;10.00;6.33;;;;;;;12.81;64.31;98370.72;1759311;81;21170;-76
2021/06/01 06:23:55;;;;;;;10.45;6.42;;;;;;;12.85;63.33;98369.87;1759245;80;20969;-76
2021/06/01 06:26:21;;;;;;;8.50;5.95;;;;;;;12.93;62.72;98369.81;1759752;81;20866;-76
2021/06/01 06:28:47;;;;;;;12.20;5.80;;;;;;;13.02;62.41;98364.56;1733499;81;21131;-76
2021/06/01 06:31:15;;;;;;;19.77;7.05;;;;;;;12.97;61.62;98370.84;1759651;81;20972;-76
2021/06/01 06:33:41;;;;;;;9.75;6.92;;;;;;;13.07;62.37;98368.02;1759282;80;21040;-76
2021/06/01 06:36:07;;;;;;;11.22;6.97;;;;;;;13.38;61.44;98375.36;1759099;81;21130;-76
2021/06/01 06:38:33;;;;;;;10.70;5.92;;;;;;;13.70;61.97;98371.19;1709330;81;21013;-76
2021/06/01 06:43:38;;;;;;;11.08;5.97;;;;;;;14.34;59.46;98365.11;1736281;81;20938;-76
2021/06/01 06:46:12;;;;;;;8.98;6.62;;;;;;;14.41;56.69;98366.11;1759317;81;21206;-76
2021/06/01 06:48:33;;;;;;;7.10;4.60;;;;;;;14.35;57.63;98359.10;1758022;80;21009;-77
2021/06/01 06:51:02;;;;;;;8.18;5.78;;;;;;;14.56;57.24;98357.72;1759146;81;21032;-77
2021/06/01 06:53:28;;;;;;;8.85;5.30;;;;;;;14.55;54.28;98362.12;1759326;80;21092;-77
2021/06/01 06:55:54;;;;;;;11.78;6.03;;;;;;;14.59;55.39;98359.84;1759239;81;20909;-77
2021/06/01 06:58:20;;;;;;;10.60;5.30;;;;;;;14.78;55.33;98353.54;1759319;80;21051;-77
2021/06/01 07:00:46;;;;;;;6.87;3.92;;;;;;;14.87;55.62;98353.95;1759303;81;21464;-77
2021/06/01 07:03:12;;;;;;;9.93;5.83;;;;;;;14.67;47.11;98350.98;1759320;80;21461;-77
2021/06/01 07:05:38;;;;;;;8.23;4.67;;;;;;;14.78;51.77;98352.17;1759588;81;20878;-77
2021/06/01 07:08:04;;;;;;;13.10;5.30;;;;;;;14.68;46.44;98355.89;1759192;80;20890;-77
2021/06/01 07:10:30;;;;;;;11.40;5.30;;;;;;;14.91;51.81;98355.51;1759404;81;21079;-77
2021/06/01 07:13:00;;;;;;;10.80;5.58;;;;;;;15.16;50.82;98353.69;1759162;80;20935;-76
2021/06/01 07:15:30;;;;;;;10.15;4.85;;;;;;;15.55;51.71;98349.64;1759256;81;20985;-76
2021/06/01 07:17:59;;;;;;;9.33;4.62;;;;;;;15.93;49.53;98351.62;1759178;80;20977;-76
2021/06/01 07:20:30;;;;;;;8.93;4.85;;;;;;;16.13;50.39;98353.09;1734528;81;21452;-76
2021/06/01 07:22:53;;;;;;;9.73;4.40;;;;;;;16.11;48.44;98348.50;1758810;80;24019;-76
2021/06/01 07:25:19;;;;;;;7.45;5.15;;;;;;;16.27;49.63;98343.50;1759218;81;21571;-77
2021/06/01 07:27:45;;;;;;;9.25;4.80;;;;;;;16.48;49.94;98333.68;1759156;80;20886;-77
2021/06/01 07:30:13;;;;;;;5.65;4.22;;;;;;;16.75;47.76;98338.27;1753888;80;21052;-77
2021/06/01 07:32:39;;;;;;;7.55;4.95;;;;;;;17.29;46.86;98332.19;1750039;80;20918;-77
2021/06/01 07:35:06;;;;;;;11.95;5.17;;;;;;;17.87;47.43;98327.56;1750282;82;21115;-77
2021/06/01 07:37:32;;;;;;;5.78;4.22;;;;;;;18.53;46.42;98326.28;1750094;80;20977;-77
2021/06/01 07:39:58;;;;;;;5.12;4.10;;;;;;;18.93;43.82;98329.41;1750007;82;20957;-77
2021/06/01 07:42:24;;;;;;;5.05;3.75;;;;;;;19.81;42.61;98317.17;1720601;80;20902;-77
2021/06/01 07:44:50;;;;;;;7.25;4.17;;;;;;;19.75;42.77;98321.85;1750122;81;20929;-77
2021/06/01 07:47:16;;;;;;;6.15;3.92;;;;;;;20.29;42.09;98325.52;1750146;80;21152;-77
2021/06/01 07:49:42;;;;;;;7.85;4.20;;;;;;;20.37;42.38;98319.70;1720685;82;20890;-77
2021/06/01 07:52:08;;;;;;;5.47;4.08;;;;;;;20.62;37.67;98328.34;1750108;80;20945;-77
2021/06/01 07:54:34;;;;;;;5.70;4.10;;;;;;;21.09;40.31;98325.25;1750214;81;21508;-77
2021/06/01 07:57:00;;;;;;;6.80;4.03;;;;;;;20.65;39.41;98324.89;1750168;81;20974;-77
2021/06/01 07:59:26;;;;;;;8.15;4.40;;;;;;;20.04;39.45;98320.44;1750177;80;21207;-77
2021/06/01 08:01:52;;;;;;;11.65;5.25;;;;;;;19.60;40.73;98324.59;1750035;82;20949;-77
2021/06/01 08:04:18;;;;;;;9.00;4.70;;;;;;;18.66;39.66;98327.28;1750086;80;20989;-77
2021/06/01 08:06:44;;;;;;;7.08;4.53;;;;;;;17.88;41.87;98330.55;1720823;82;20883;-77
2021/06/01 08:09:10;;;;;;;5.53;3.92;;;;;;;17.61;42.72;98332.39;1750079;80;20985;-77
2021/06/01 08:11:36;;;;;;;13.65;8.45;;;;;;;17.42;43.28;98328.52;1750197;82;21241;-77
2021/06/01 08:14:02;;;;;;;10.30;5.50;;;;;;;17.15;43.27;98328.73;1750140;80;20981;-77
2021/06/01 08:16:29;;;;;;;9.03;6.83;;;;;;;17.00;43.84;98327.77;1750270;82;20977;-77
2021/06/01 08:19:07;;;;;;;6.12;4.83;;;;;;;16.68;43.89;98328.85;1750119;80;21051;-77
2021/06/01 08:21:44;;;;;;;8.75;4.80;;;;;;;16.31;42.93;98333.55;1749451;82;21033;-77
2021/06/01 08:24:06;;;;;;;7.67;4.15;;;;;;;16.54;41.15;98331.08;1749276;80;21738;-76
2021/06/01 08:26:32;;;;;;;11.68;5.25;;;;;;;18.01;38.65;98333.70;1750009;82;20970;-76
2021/06/01 08:28:58;;;;;;;8.80;4.33;;;;;;;18.32;40.11;98334.38;1720867;82;20842;-76
2021/06/01 08:31:24;;;;;;;6.95;5.00;;;;;;;18.04;40.98;98334.45;1766418;81;21017;-76
2021/06/01 08:33:51;;;;;;;6.53;3.55;;;;;;;17.56;40.01;98333.09;1766922;79;21020;-76
2021/06/01 08:36:17;;;;;;;5.87;4.33;;;;;;;17.77;41.70;98328.65;1766730;81;21436;-76
2021/06/01 08:38:43;;;;;;;6.55;3.60;;;;;;;17.59;41.54;98325.03;1766917;79;20850;-76
2021/06/01 08:41:13;;;;;;;6.72;4.65;;;;;;;17.78;41.22;98333.03;1766873;81;21036;-76
2021/06/01 08:43:37;;;;;;;5.33;3.87;;;;;;;17.99;40.97;98331.84;1741354;81;21369;-76
2021/06/01 08:46:03;;;;;;;4.62;3.20;;;;;;;19.14;39.57;98320.70;1767150;81;21066;-76
2021/06/01 08:48:31;;;;;;;5.58;3.70;;;;;;;21.12;36.41;98312.19;1766973;79;21151;-76
2021/06/01 08:50:56;;;;;;;9.20;3.67;;;;;;;21.95;32.47;98318.64;1767095;81;21433;-76
2021/06/01 08:53:22;;;;;;;5.33;2.42;;;;;;;22.31;30.52;98318.39;1766960;79;20932;-76
2021/06/01 08:55:49;;;;;;;9.70;3.33;;;;;;;22.26;33.27;98318.63;1766834;81;21091;-76
2021/06/01 08:58:17;;;;;;;4.95;2.80;;;;;;;24.16;29.30;98300.23;1767033;79;21465;-76
2021/06/01 09:00:44;;;;;;;9.00;3.62;;;;;;;24.51;25.34;98301.59;1767115;81;21115;-76
2021/06/01 09:03:13;;;;;;;6.17;2.70;;;;;;;24.69;28.05;98303.33;1766873;79;21021;-76
2021/06/01 09:06:13;;;;;;;6.95;3.70;;;;;;;25.37;27.12;98304.59;1766973;81;21009;-76
2021/06/01 09:08:46;;;;;;;4.42;3.52;;;;;;;23.88;29.59;98301.22;1765437;79;21413;-77
2021/06/01 09:11:27;;;;;;;5.62;3.50;;;;;;;24.17;29.33;98297.69;1766038;81;21513;-77
2021/06/01 09:14:14;;;;;;;9.80;3.02;;;;;;;26.00;27.99;98298.49;1762235;79;21165;-77
2021/06/01 09:22:00;;;;;;;4.05;3.33;;;;;;;24.83;24.32;98300.84;1741356;81;20989;-76
2021/06/01 09:24:26;;;;;;;4.78;2.83;;;;;;;26.21;24.01;98297.98;1766898;79;20928;-76
2021/06/01 09:26:57;;;;;;;2.77;1.30;;;;;;;24.68;22.60;98290.65;1766998;81;21794;-76
2021/06/01 09:29:24;;;;;;;6.42;2.35;;;;;;;25.06;21.67;98291.21;1766608;79;20957;-76
2021/06/01 09:32:13;;;;;;;2.50;2.02;;;;;;;26.86;22.17;98285.90;1750272;82;21448;-76
2021/06/01 09:34:52;;;;;;;2.33;2.08;;;;;;;27.71;21.18;98281.73;1750297;81;21429;-77
2021/06/01 09:37:22;;;;;;;6.47;1.90;;;;;;;28.05;21.27;98279.56;1750364;80;20985;-77
2021/06/01 09:40:19;;;;;;;3.42;1.77;;;;;;;27.33;22.22;98277.42;1750368;81;21543;-77
2021/06/01 09:42:51;;;;;;;3.70;2.25;;;;;;;24.81;20.17;98275.48;1750311;80;20930;-76
2021/06/01 09:45:20;;;;;;;2.92;1.67;;;;;;;23.47;21.84;98277.69;1749890;82;20981;-77
2021/06/01 09:47:59;;;;;;;2.58;1.67;;;;;;;22.07;24.17;98286.69;1750470;80;21394;-77
2021/06/01 09:53:07;;;;;;;3.83;2.27;;;;;;;21.60;24.97;98282.48;1750458;80;21501;-76
2021/06/01 09:55:41;;;;;;;7.08;1.98;;;;;;;20.68;24.94;98278.81;1720689;82;21042;-76
2021/06/01 09:58:12;;;;;;;4.30;2.30;;;;;;;20.40;27.12;98278.55;1750135;80;20867;-76
2021/06/01 10:00:40;;;;;;;5.67;3.08;;;;;;;19.30;28.48;98279.76;1750173;81;20977;-76
2021/06/01 10:03:10;;;;;;;4.08;2.45;;;;;;;19.11;28.80;98285.09;1750323;80;20922;-77
2021/06/01 10:05:37;;;;;;;7.00;2.67;;;;;;;18.68;28.77;98283.84;1750252;81;21886;-77
2021/06/01 10:08:18;;;;;;;3.98;2.40;;;;;;;18.86;29.00;98283.23;1750130;80;20969;-77
2021/06/01 10:10:59;;;;;;;8.43;2.40;;;;;;;18.71;29.29;98273.58;1750272;82;20886;-76
2021/06/01 10:13:27;;;;;;;4.28;2.37;;;;;;;21.07;27.55;98264.19;1750187;80;21029;-76
2021/06/01 10:15:55;;;;;;;;;;;;;;;20.43;26.99;98264.16;1752812;82;21001;-76
2021/06/01 10:18:22;;;;;;;3.10;2.10;;;;;;;21.10;26.63;98264.30;1750343;80;21028;-76
2021/06/01 10:20:49;;;;;;;7.42;3.00;;;;;;;21.63;27.01;98271.36;1720870;82;21040;-76
2021/06/01 10:23:20;;;;;;;3.45;2.60;;;;;;;20.54;26.12;98272.79;1750380;80;21370;-76
2021/06/01 10:25:44;;;;;;;5.28;2.60;;;;;;;20.62;27.17;98271.09;1749845;81;21492;-76
2021/06/01 10:28:11;;;;;;;8.43;3.35;;;;;;;20.64;27.87;98271.55;1750236;80;21367;-76
2021/06/01 10:30:39;;;;;;;3.85;2.35;;;;;;;20.19;27.19;98273.65;1750160;81;21181;-76
2021/06/01 10:33:11;;;;;;;4.33;2.30;;;;;;;20.08;27.66;98269.67;1720535;82;20993;-76
2021/06/01 10:35:43;;;;;;;3.77;2.35;;;;;;;19.92;28.38;98277.17;1750117;81;21442;-76
2021/06/01 10:42:31;;;;;;;3.10;2.77;;;;;;;19.22;28.76;98275.91;1750684;82;21389;-76
2021/06/01 10:52:27;;;;;;;3.92;2.67;;;;;;;22.22;25.37;98274.95;1750028;80;20930;-76
2021/06/01 10:54:58;;;;;;;4.62;2.77;;;;;;;24.07;24.06;98263.08;1750212;81;20962;-76
2021/06/01 10:57:24;;;;;;;5.03;3.08;;;;;;;25.68;22.54;98257.74;1750210;80;21481;-77
2021/06/01 11:01:49;;;;;;;5.78;2.98;;;;;;;26.24;21.76;98255.58;1720644;82;21046;-77
2021/06/01 11:02:27;;;;;;;14.65;8.40;;;;;;;27.14;21.08;98256.20;1746227;80;21010;-76
2021/06/01 11:05:11;;;;;;;3.10;2.47;;;;;;;26.92;21.36;98257.17;1750059;81;21057;-76
2021/06/01 11:07:58;;;;;;;4.78;2.90;;;;;;;26.83;21.44;98251.89;1750085;80;21390;-76
2021/06/01 11:10:43;;;;;;;5.33;2.67;;;;;;;26.73;19.66;98250.41;1750022;82;21131;-77
2021/06/01 11:13:25;;;;;;;3.75;2.22;;;;;;;23.76;22.63;98254.31;1749973;80;20934;-76
2021/06/01 11:15:55;;;;;;;6.25;2.77;;;;;;;24.29;23.20;98256.04;1743119;82;21509;-76
2021/06/01 11:18:36;;;;;;;3.62;2.27;;;;;;;24.91;22.44;98247.74;1750055;80;20989;-77
2021/06/01 11:21:30;;;;;;;11.15;5.80;;;;;;;25.63;21.17;98243.59;1748700;82;20925;-77
2021/06/01 11:33:05;;;;;;;4.22;2.47;;;;;;;22.59;23.61;98249.94;1750245;80;21167;-76
2021/06/01 11:35:37;;;;;;;4.92;2.77;;;;;;;23.31;23.93;98243.14;1748903;82;21453;-76
2021/06/01 11:38:07;;;;;;;7.17;3.83;;;;;;;23.54;23.54;98235.00;1721008;82;21683;-77
2021/06/01 11:40:50;;;;;;;13.15;4.87;;;;;;;23.28;23.59;98238.34;1749238;82;21034;-77
2021/06/01 11:43:13;;;;;;;6.55;2.77;;;;;;;22.58;24.28;98236.72;1745723;80;21508;-76
2021/06/01 11:46:02;;;;;;;12.93;3.37;;;;;;;22.91;24.18;98234.25;1750086;82;21030;-76
2021/06/01 11:51:17;;;;;;;4.55;3.08;;;;;;;22.61;24.52;98243.48;1750031;82;21106;-77
2021/06/01 11:53:56;;;;;;;6.87;3.00;;;;;;;22.77;24.83;98240.97;1720764;82;21009;-75
2021/06/01 11:56:38;;;;;;;5.20;3.05;;;;;;;21.79;25.67;98236.95;1750525;81;20930;-76
2021/06/01 12:02:02;;;;;;;6.30;3.30;;;;;;;20.32;26.99;98234.59;1750148;82;20982;-77
2021/06/01 12:13:06;;;;;;;14.55;7.25;;;;;;;26.37;18.55;98225.77;1750263;80;20962;-77
2021/06/01 12:18:19;;;;;;;11.05;5.78;;;;;;;29.51;17.94;98216.44;1750224;80;21048;-76
2021/06/01 12:20:39;;;;;;;8.68;2.62;;;;;;;28.02;17.60;98219.06;1748545;82;20830;-77
2021/06/01 12:23:27;;;;;;;10.40;5.72;;;;;;;25.09;20.53;98224.52;1720976;82;20969;-76
2021/06/01 12:26:07;;;;;;;6.53;4.20;;;;;;;23.38;22.23;98221.78;1750200;82;25808;-76
2021/06/01 12:31:19;;;;;;;5.65;2.90;;;;;;;22.30;24.00;98229.81;1750212;81;21112;-76
2021/06/01 12:33:58;;;;;;;5.97;2.40;;;;;;;21.67;25.09;98224.81;1749879;80;21433;-76
2021/06/01 12:37:08;;;;;;;3.20;2.60;;;;;;;21.30;25.72;98226.02;1727968;82;20930;-76